createdAt,value
2019-01-24T00:00:49.099Z,29.33
2019-01-24T00:01:53.605Z,25.35
2019-01-24T00:02:58.123Z,26.53
2019-01-24T00:04:02.677Z,27.97
2019-01-24T00:05:08.050Z,28.13
2019-01-24T00:06:12.563Z,29.20
2019-01-24T00:07:18.111Z,28.97
2019-01-24T00:08:22.627Z,28.67
2019-01-24T00:09:27.150Z,25.85
2019-01-24T00:10:31.737Z,26.33
2019-01-24T00:11:36.249Z,29.37
2019-01-24T00:12:40.796Z,27.65
2019-01-24T00:13:45.316Z,27.00
2019-01-24T00:14:49.858Z,25.72
2019-01-24T00:15:54.416Z,27.77
2019-01-24T00:16:58.925Z,29.67
2019-01-24T00:18:03.517Z,31.25
2019-01-24T00:19:11.324Z,27.33
2019-01-24T00:20:16.656Z,27.13
2019-01-24T00:21:21.194Z,28.32
2019-01-24T00:22:25.735Z,27.32
2019-01-24T00:23:30.220Z,26.53
2019-01-24T00:24:34.757Z,24.97
2019-01-24T00:25:39.248Z,27.73
2019-01-24T00:26:43.910Z,27.77
2019-01-24T00:27:49.322Z,30.83
2019-01-24T00:28:53.832Z,29.97
2019-01-24T00:29:58.329Z,26.30
2019-01-24T00:31:02.994Z,26.27
2019-01-24T00:32:07.555Z,28.15
2019-01-24T00:33:12.090Z,26.68
2019-01-24T00:34:16.624Z,25.52
2019-01-24T00:35:21.900Z,27.80
2019-01-24T00:36:26.498Z,30.32
2019-01-24T00:37:31.084Z,29.42
2019-01-24T00:38:35.583Z,27.43
2019-01-24T00:39:40.163Z,27.90
2019-01-24T00:40:44.664Z,27.80
2019-01-24T00:41:49.158Z,25.10
2019-01-24T00:42:53.729Z,29.35
2019-01-24T00:43:58.317Z,29.30
2019-01-24T00:45:02.878Z,27.97
2019-01-24T00:46:07.430Z,31.53
2019-01-24T00:47:11.951Z,26.15
2019-01-24T00:48:16.493Z,28.02
2019-01-24T00:49:20.983Z,26.73
2019-01-24T00:50:25.784Z,30.03
2019-01-24T00:51:30.323Z,27.63
2019-01-24T00:52:34.853Z,25.35
2019-01-24T00:53:39.368Z,26.25
2019-01-24T00:54:43.907Z,26.17
2019-01-24T00:55:48.435Z,28.92
2019-01-24T00:56:52.991Z,28.57
2019-01-24T00:57:57.519Z,28.92
2019-01-24T00:59:03.114Z,29.23
2019-01-24T01:00:19.341Z,28.25
2019-01-24T01:01:23.887Z,28.67
2019-01-24T01:02:28.469Z,26.30
2019-01-24T01:03:32.971Z,28.20
2019-01-24T01:04:37.520Z,30.10
2019-01-24T01:05:42.105Z,26.47
2019-01-24T01:06:48.226Z,27.40
2019-01-24T01:07:52.987Z,28.37
2019-01-24T01:08:57.482Z,28.40
2019-01-24T01:10:02.044Z,27.70
2019-01-24T01:11:06.695Z,25.90
2019-01-24T01:12:11.261Z,28.20
2019-01-24T01:13:15.881Z,26.65
2019-01-24T01:14:20.419Z,27.65
2019-01-24T01:15:24.985Z,25.70
2019-01-24T01:16:29.571Z,29.77
2019-01-24T01:17:34.071Z,26.70
2019-01-24T01:18:38.612Z,25.70
2019-01-24T01:19:43.199Z,29.50
2019-01-24T01:20:47.730Z,29.60
2019-01-24T01:21:52.269Z,25.87
2019-01-24T01:22:56.801Z,28.37
2019-01-24T01:24:01.321Z,30.30
2019-01-24T01:25:09.069Z,29.82
2019-01-24T01:26:13.583Z,29.20
2019-01-24T01:27:18.158Z,26.50
2019-01-24T01:28:22.750Z,27.73
2019-01-24T01:29:27.439Z,27.87
2019-01-24T01:30:32.040Z,27.60
2019-01-24T01:31:36.562Z,27.82
2019-01-24T01:32:41.332Z,25.05
2019-01-24T01:33:45.846Z,28.45
2019-01-24T01:34:50.383Z,28.25
2019-01-24T01:35:55.008Z,31.40
2019-01-24T01:37:00.155Z,30.55
2019-01-24T01:38:04.919Z,30.77
2019-01-24T01:39:09.769Z,27.90
2019-01-24T01:40:16.940Z,30.15
2019-01-24T01:41:21.452Z,27.77
2019-01-24T01:42:26.334Z,25.03
2019-01-24T01:43:31.035Z,27.70
2019-01-24T01:44:35.728Z,28.30
2019-01-24T01:45:40.235Z,26.77
2019-01-24T01:46:45.888Z,28.70
2019-01-24T01:47:50.591Z,29.17
2019-01-24T01:48:55.119Z,26.27
2019-01-24T01:50:00.614Z,27.37
2019-01-24T01:51:05.152Z,28.55
2019-01-24T01:52:09.665Z,28.02
2019-01-24T01:53:15.649Z,27.48
2019-01-24T01:54:20.168Z,26.25
2019-01-24T01:55:24.686Z,27.58
2019-01-24T01:56:30.327Z,25.62
2019-01-24T01:57:34.861Z,28.67
2019-01-24T01:58:39.457Z,26.13
2019-01-24T01:59:43.949Z,28.40
2019-01-24T02:00:48.523Z,29.70
2019-01-24T02:01:53.174Z,25.93
2019-01-24T02:02:58.468Z,28.03
2019-01-24T02:04:02.980Z,30.40
2019-01-24T02:05:09.521Z,25.63
2019-01-24T02:06:14.060Z,25.03
2019-01-24T02:07:18.547Z,26.53
2019-01-24T02:08:23.038Z,26.80
2019-01-24T02:09:27.609Z,27.95
2019-01-24T02:10:32.177Z,26.45
2019-01-24T02:11:36.705Z,27.45
2019-01-24T02:12:41.313Z,29.85
2019-01-24T02:13:45.918Z,25.15
2019-01-24T02:14:50.443Z,27.60
2019-01-24T02:15:55.054Z,27.52
2019-01-24T02:16:59.578Z,26.60
2019-01-24T02:18:04.296Z,26.57
2019-01-24T02:19:08.912Z,25.20
2019-01-24T02:20:16.129Z,24.93
2019-01-24T02:21:20.847Z,25.62
2019-01-24T02:22:25.455Z,27.20
2019-01-24T02:23:29.942Z,27.03
2019-01-24T02:24:34.428Z,25.87
2019-01-24T02:25:39.901Z,25.80
2019-01-24T02:26:44.458Z,25.33
2019-01-24T02:27:50.838Z,27.58
2019-01-24T02:28:56.428Z,26.87
2019-01-24T02:30:01.001Z,23.67
2019-01-24T02:31:07.363Z,25.90
2019-01-24T02:32:12.244Z,28.92
2019-01-24T02:33:16.834Z,29.18
2019-01-24T02:34:21.362Z,26.82
2019-01-24T02:35:26.032Z,25.97
2019-01-24T02:36:30.575Z,26.87
2019-01-24T02:37:35.174Z,26.68
2019-01-24T02:38:39.685Z,27.03
2019-01-24T02:39:44.201Z,24.40
2019-01-24T02:40:48.735Z,25.67
2019-01-24T02:41:53.240Z,28.83
2019-01-24T02:42:57.841Z,26.23
2019-01-24T02:44:02.447Z,25.37
2019-01-24T02:45:12.999Z,26.63
2019-01-24T02:46:17.575Z,24.73
2019-01-24T02:47:22.187Z,25.80
2019-01-24T02:48:28.606Z,28.07
2019-01-24T02:49:33.156Z,25.23
2019-01-24T02:50:38.113Z,27.35
2019-01-24T02:51:42.765Z,28.70
2019-01-24T02:52:47.735Z,27.35
2019-01-24T02:53:52.288Z,29.67
2019-01-24T02:54:56.841Z,27.90
2019-01-24T02:56:01.406Z,28.80
2019-01-24T02:57:06.016Z,30.25
2019-01-24T02:58:10.993Z,26.47
2019-01-24T02:59:15.472Z,26.60
2019-01-24T03:00:21.837Z,25.13
2019-01-24T03:01:26.366Z,26.50
2019-01-24T03:02:30.874Z,28.03
2019-01-24T03:03:35.354Z,25.93
2019-01-24T03:04:39.870Z,24.13
2019-01-24T03:05:44.387Z,24.87
2019-01-24T03:06:48.903Z,24.70
2019-01-24T03:07:53.408Z,26.07
2019-01-24T03:08:57.902Z,24.70
2019-01-24T03:10:02.429Z,27.50
2019-01-24T03:11:07.033Z,25.20
2019-01-24T03:12:12.370Z,24.30
2019-01-24T03:13:16.909Z,25.08
2019-01-24T03:14:21.432Z,24.85
2019-01-24T03:15:26.057Z,27.93
2019-01-24T03:16:30.785Z,29.10
2019-01-24T03:17:35.376Z,26.23
2019-01-24T03:18:39.904Z,24.92
2019-01-24T03:19:45.411Z,24.33
2019-01-24T03:20:49.902Z,22.20
2019-01-24T03:21:54.457Z,26.70
2019-01-24T03:22:59.096Z,25.23
2019-01-24T03:24:03.654Z,27.37
2019-01-24T03:25:10.476Z,26.27
2019-01-24T03:26:14.974Z,27.93
2019-01-24T03:27:19.538Z,26.67
2019-01-24T03:28:24.057Z,28.40
2019-01-24T03:29:28.618Z,28.73
2019-01-24T03:30:33.098Z,27.03
2019-01-24T03:31:37.592Z,27.50
2019-01-24T03:32:42.109Z,25.90
2019-01-24T03:33:46.654Z,24.50
2019-01-24T03:34:51.182Z,27.07
2019-01-24T03:35:55.994Z,26.68
2019-01-24T03:37:00.522Z,26.25
2019-01-24T03:38:05.069Z,26.00
2019-01-24T03:39:09.613Z,24.70
2019-01-24T03:40:14.952Z,27.73
2019-01-24T03:41:19.543Z,26.33
2019-01-24T03:42:24.193Z,24.80
2019-01-24T03:43:28.733Z,27.63
2019-01-24T03:44:33.263Z,27.33
2019-01-24T03:45:37.812Z,23.67
2019-01-24T03:46:42.375Z,24.50
2019-01-24T03:47:47.020Z,26.10
2019-01-24T03:48:51.640Z,28.93
2019-01-24T03:49:56.205Z,29.10
2019-01-24T03:51:00.732Z,28.23
2019-01-24T03:52:05.282Z,28.80
2019-01-24T03:53:09.789Z,28.10
2019-01-24T03:54:14.315Z,29.73
2019-01-24T03:55:22.449Z,28.65
2019-01-24T03:56:26.973Z,27.55
2019-01-24T03:57:31.508Z,31.90
2019-01-24T03:58:36.022Z,28.95
2019-01-24T03:59:40.574Z,29.12
2019-01-24T04:00:45.224Z,27.73
2019-01-24T04:01:49.882Z,26.30
2019-01-24T04:02:54.648Z,26.67
2019-01-24T04:03:59.201Z,29.70
2019-01-24T04:05:11.548Z,26.57
2019-01-24T04:06:11.644Z,27.83
2019-01-24T04:07:16.174Z,25.88
2019-01-24T04:08:22.107Z,24.53
2019-01-24T04:09:26.654Z,25.75
2019-01-24T04:10:31.400Z,26.27
2019-01-24T04:11:36.059Z,24.13
2019-01-24T04:12:40.553Z,24.77
2019-01-24T04:13:45.084Z,24.67
2019-01-24T04:14:49.592Z,24.75
2019-01-24T04:15:54.118Z,27.37
2019-01-24T04:16:58.763Z,27.52
2019-01-24T04:18:03.308Z,29.37
2019-01-24T04:19:07.901Z,26.17
2019-01-24T04:20:12.807Z,26.65
2019-01-24T04:21:17.426Z,27.73
2019-01-24T04:22:21.983Z,27.93
2019-01-24T04:23:26.601Z,25.07
2019-01-24T04:24:32.351Z,29.80
2019-01-24T04:25:36.874Z,26.02
2019-01-24T04:26:41.380Z,25.73
2019-01-24T04:27:45.896Z,23.43
2019-01-24T04:28:52.723Z,26.63
2019-01-24T04:29:57.246Z,24.53
2019-01-24T04:31:01.727Z,24.60
2019-01-24T04:32:06.264Z,25.85
2019-01-24T04:33:10.801Z,24.85
2019-01-24T04:34:15.320Z,22.50
2019-01-24T04:35:20.418Z,23.20
2019-01-24T04:36:25.151Z,27.17
2019-01-24T04:37:29.676Z,24.12
2019-01-24T04:38:34.269Z,23.38
2019-01-24T04:39:38.830Z,21.93
2019-01-24T04:40:43.362Z,23.55
2019-01-24T04:41:47.887Z,25.70
2019-01-24T04:42:52.491Z,24.07
2019-01-24T04:43:57.077Z,24.72
2019-01-24T04:45:01.617Z,24.73
2019-01-24T04:46:06.155Z,27.67
2019-01-24T04:47:10.728Z,24.03
2019-01-24T04:48:15.520Z,24.23
2019-01-24T04:49:20.064Z,24.13
2019-01-24T04:50:25.173Z,24.80
2019-01-24T04:51:29.678Z,23.60
2019-01-24T04:52:34.192Z,25.20
2019-01-24T04:53:38.716Z,25.10
2019-01-24T04:54:44.849Z,25.05
2019-01-24T04:55:50.988Z,24.75
2019-01-24T04:56:55.509Z,22.93
2019-01-24T04:58:01.045Z,23.73
2019-01-24T04:59:05.589Z,26.12
2019-01-24T05:00:16.052Z,26.20
2019-01-24T05:01:20.580Z,28.52
2019-01-24T05:02:25.126Z,25.77
2019-01-24T05:03:29.726Z,26.40
2019-01-24T05:04:34.216Z,27.10
2019-01-24T05:05:38.761Z,29.90
2019-01-24T05:06:43.270Z,27.17
2019-01-24T05:07:47.873Z,26.80
2019-01-24T05:08:53.306Z,29.50
2019-01-24T05:09:57.836Z,26.77
2019-01-24T05:11:02.375Z,26.37
2019-01-24T05:12:06.909Z,27.55
2019-01-24T05:13:11.444Z,29.05
2019-01-24T05:14:16.004Z,28.50
2019-01-24T05:15:20.570Z,27.97
2019-01-24T05:16:26.756Z,30.70
2019-01-24T05:17:31.294Z,29.57
2019-01-24T05:18:35.840Z,26.30
2019-01-24T05:19:40.402Z,28.27
2019-01-24T05:20:44.921Z,27.13
2019-01-24T05:21:49.473Z,29.65
2019-01-24T05:22:54.037Z,27.45
2019-01-24T05:23:58.581Z,28.65
2019-01-24T05:25:03.450Z,25.17
2019-01-24T05:26:08.081Z,28.63
2019-01-24T05:27:12.665Z,29.73
2019-01-24T05:28:17.213Z,28.03
2019-01-24T05:29:21.730Z,26.77
2019-01-24T05:30:27.276Z,26.70
2019-01-24T05:31:31.779Z,26.90
2019-01-24T05:32:36.317Z,27.70
2019-01-24T05:33:40.905Z,25.37
2019-01-24T05:34:45.402Z,25.07
2019-01-24T05:35:49.935Z,28.50
2019-01-24T05:36:54.449Z,27.53
2019-01-24T05:37:58.944Z,25.23
2019-01-24T05:39:05.036Z,28.20
2019-01-24T05:40:10.895Z,26.37
2019-01-24T05:41:15.408Z,29.92
2019-01-24T05:42:19.939Z,30.40
2019-01-24T05:43:24.509Z,26.65
2019-01-24T05:44:29.125Z,26.68
2019-01-24T05:45:33.648Z,26.25
2019-01-24T05:46:38.309Z,25.45
2019-01-24T05:47:42.988Z,26.62
2019-01-24T05:48:47.595Z,28.15
2019-01-24T05:49:52.106Z,26.50
2019-01-24T05:50:56.598Z,24.77
2019-01-24T05:52:01.126Z,24.07
2019-01-24T05:53:05.637Z,30.03
2019-01-24T05:54:10.146Z,24.70
2019-01-24T05:55:15.156Z,26.07
2019-01-24T05:56:19.659Z,25.97
2019-01-24T05:57:25.230Z,24.90
2019-01-24T05:58:29.738Z,23.83
2019-01-24T05:59:34.279Z,24.82
2019-01-24T06:00:40.716Z,25.68
2019-01-24T06:01:45.604Z,26.17
2019-01-24T06:02:50.207Z,23.42
2019-01-24T06:03:55.935Z,25.82
2019-01-24T06:05:00.522Z,24.85
2019-01-24T06:06:05.087Z,27.73
2019-01-24T06:07:09.622Z,24.40
2019-01-24T06:08:15.751Z,24.93
2019-01-24T06:09:20.247Z,24.40
2019-01-24T06:10:24.791Z,21.87
2019-01-24T06:11:29.323Z,26.93
2019-01-24T06:12:33.826Z,21.00
2019-01-24T06:13:38.355Z,26.90
2019-01-24T06:14:42.895Z,25.20
2019-01-24T06:15:47.498Z,24.93
2019-01-24T06:16:51.991Z,26.53
2019-01-24T06:17:56.542Z,26.60
2019-01-24T06:19:01.076Z,26.00
2019-01-24T06:20:08.229Z,27.07
2019-01-24T06:21:12.924Z,28.42
2019-01-24T06:22:17.458Z,27.73
2019-01-24T06:23:22.317Z,25.12
2019-01-24T06:24:26.879Z,23.80
2019-01-24T06:25:31.410Z,24.43
2019-01-24T06:26:36.060Z,25.90
2019-01-24T06:27:40.635Z,25.97
2019-01-24T06:28:45.159Z,28.75
2019-01-24T06:29:49.657Z,25.97
2019-01-24T06:30:54.238Z,25.37
2019-01-24T06:31:58.798Z,25.30
2019-01-24T06:33:03.339Z,23.47
2019-01-24T06:34:09.389Z,22.27
2019-01-24T06:35:13.903Z,25.73
2019-01-24T06:36:18.525Z,28.37
2019-01-24T06:37:23.144Z,24.43
2019-01-24T06:38:28.937Z,27.53
2019-01-24T06:39:34.750Z,26.20
2019-01-24T06:40:39.289Z,24.07
2019-01-24T06:41:45.245Z,24.90
2019-01-24T06:42:49.812Z,24.72
2019-01-24T06:43:54.610Z,26.40
2019-01-24T06:44:59.177Z,26.17
2019-01-24T06:46:03.787Z,29.12
2019-01-24T06:47:08.269Z,25.43
2019-01-24T06:48:12.788Z,24.87
2019-01-24T06:49:17.282Z,26.83
2019-01-24T06:50:21.936Z,25.63
2019-01-24T06:51:26.542Z,26.10
2019-01-24T06:52:31.089Z,23.37
2019-01-24T06:53:35.705Z,24.33
2019-01-24T06:54:40.257Z,23.40
2019-01-24T06:55:45.197Z,24.83
2019-01-24T06:56:49.813Z,24.67
2019-01-24T06:57:54.650Z,28.20
2019-01-24T06:58:59.154Z,29.00
2019-01-24T07:00:05.352Z,26.97
2019-01-24T07:01:09.924Z,27.52
2019-01-24T07:02:14.665Z,24.52
2019-01-24T07:03:20.414Z,26.17
2019-01-24T07:04:25.020Z,24.52
2019-01-24T07:05:29.708Z,24.80
2019-01-24T07:06:35.201Z,24.32
2019-01-24T07:07:39.815Z,23.32
2019-01-24T07:08:45.378Z,24.92
2019-01-24T07:09:49.946Z,26.30
2019-01-24T07:10:54.575Z,27.40
2019-01-24T07:11:59.076Z,25.83
2019-01-24T07:13:03.959Z,24.12
2019-01-24T07:14:08.572Z,25.10
2019-01-24T07:15:15.988Z,23.47
2019-01-24T07:16:20.650Z,22.77
2019-01-24T07:17:25.506Z,25.93
2019-01-24T07:18:30.063Z,23.93
2019-01-24T07:19:34.663Z,26.30
2019-01-24T07:20:39.239Z,24.82
2019-01-24T07:21:43.757Z,24.17
2019-01-24T07:22:48.373Z,22.93
2019-01-24T07:23:52.948Z,25.35
2019-01-24T07:24:59.017Z,24.75
2019-01-24T07:26:03.735Z,22.00
2019-01-24T07:27:08.311Z,24.18
2019-01-24T07:28:12.927Z,25.55
2019-01-24T07:29:17.729Z,25.10
2019-01-24T07:30:22.813Z,25.50
2019-01-24T07:31:27.552Z,26.60
2019-01-24T07:32:33.188Z,27.32
2019-01-24T07:33:37.868Z,27.93
2019-01-24T07:34:42.777Z,28.67
2019-01-24T07:35:47.924Z,25.73
2019-01-24T07:36:52.545Z,26.60
2019-01-24T07:37:57.319Z,25.40
2019-01-24T07:39:01.920Z,28.65
2019-01-24T07:40:09.791Z,27.30
2019-01-24T07:41:14.805Z,26.23
2019-01-24T07:42:19.390Z,28.10
2019-01-24T07:43:23.995Z,25.62
2019-01-24T07:44:28.545Z,26.23
2019-01-24T07:45:37.265Z,24.30
2019-01-24T07:46:43.290Z,24.07
2019-01-24T07:47:48.193Z,24.93
2019-01-24T07:48:53.197Z,30.68
2019-01-24T07:49:57.800Z,22.93
2019-01-24T07:51:02.297Z,26.97
2019-01-24T07:52:06.936Z,26.57
2019-01-24T07:53:11.603Z,25.40
2019-01-24T07:54:16.183Z,28.57
2019-01-24T07:55:20.781Z,27.83
2019-01-24T07:56:25.361Z,27.47
2019-01-24T07:57:30.020Z,26.27
2019-01-24T07:58:34.590Z,26.17
2019-01-24T07:59:39.188Z,29.18
2019-01-24T08:00:43.755Z,26.53
2019-01-24T08:01:48.309Z,25.95
2019-01-24T08:02:54.465Z,26.12
2019-01-24T08:03:59.005Z,29.00
2019-01-24T08:05:04.641Z,30.97
2019-01-24T08:06:09.448Z,29.27
2019-01-24T08:07:14.157Z,28.00
2019-01-24T08:08:18.731Z,25.50
2019-01-24T08:09:23.314Z,27.13
2019-01-24T08:10:27.910Z,29.92
2019-01-24T08:11:33.649Z,25.30
2019-01-24T08:12:38.322Z,25.80
2019-01-24T08:13:44.436Z,26.20
2019-01-24T08:14:49.808Z,25.95
2019-01-24T08:15:54.589Z,27.27
2019-01-24T08:16:59.236Z,27.50
2019-01-24T08:18:04.308Z,25.30
2019-01-24T08:19:08.842Z,29.57
2019-01-24T08:20:18.321Z,30.23
2019-01-24T08:21:22.953Z,27.62
2019-01-24T08:22:27.598Z,29.92
2019-01-24T08:23:32.155Z,25.52
2019-01-24T08:24:39.685Z,28.35
2019-01-24T08:25:44.211Z,28.27
2019-01-24T08:26:50.098Z,26.33
2019-01-24T08:27:54.974Z,26.10
2019-01-24T08:28:59.522Z,27.20
2019-01-24T08:30:07.118Z,25.20
2019-01-24T08:31:11.611Z,24.40
2019-01-24T08:32:16.124Z,25.33
2019-01-24T08:33:20.959Z,25.67
2019-01-24T08:34:25.639Z,28.80
2019-01-24T08:35:30.285Z,31.07
2019-01-24T08:36:34.855Z,29.10
2019-01-24T08:37:39.358Z,28.13
2019-01-24T08:38:43.920Z,25.90
2019-01-24T08:39:48.482Z,24.75
2019-01-24T08:40:53.098Z,26.93
2019-01-24T08:41:57.828Z,33.05
2019-01-24T08:43:02.476Z,28.30
2019-01-24T08:44:07.125Z,27.35
2019-01-24T08:45:13.781Z,28.83
2019-01-24T08:46:18.442Z,27.70
2019-01-24T08:47:22.968Z,26.87
2019-01-24T08:48:27.556Z,29.35
2019-01-24T08:49:32.057Z,28.97
2019-01-24T08:50:36.762Z,28.70
2019-01-24T08:51:42.192Z,29.17
2019-01-24T08:52:47.033Z,26.67
2019-01-24T08:53:51.750Z,24.87
2019-01-24T08:54:56.285Z,27.00
2019-01-24T08:56:00.786Z,26.70
2019-01-24T08:57:05.397Z,24.83
2019-01-24T08:58:09.950Z,28.20
2019-01-24T08:59:14.660Z,29.45
2019-01-24T09:00:20.869Z,29.98
2019-01-24T09:01:25.390Z,30.20
2019-01-24T09:02:29.948Z,24.52
2019-01-24T09:03:34.469Z,27.77
2019-01-24T09:04:39.051Z,36.00
2019-01-24T09:05:44.035Z,29.60
2019-01-24T09:06:48.718Z,27.53
2019-01-24T09:07:53.524Z,26.97
2019-01-24T09:08:58.009Z,27.10
2019-01-24T09:10:04.187Z,26.80
2019-01-24T09:11:09.272Z,28.37
2019-01-24T09:12:14.762Z,25.73
2019-01-24T09:13:19.601Z,27.40
2019-01-24T09:14:26.747Z,29.53
2019-01-24T09:15:31.916Z,28.07
2019-01-24T09:16:36.531Z,29.03
2019-01-24T09:17:41.395Z,24.80
2019-01-24T09:18:46.078Z,29.72
2019-01-24T09:19:50.624Z,27.52
2019-01-24T09:20:56.960Z,28.05
2019-01-24T09:22:01.619Z,26.82
2019-01-24T09:23:06.424Z,28.87
2019-01-24T09:24:11.064Z,27.55
2019-01-24T09:25:17.646Z,28.70
2019-01-24T09:26:22.502Z,26.02
2019-01-24T09:27:27.128Z,28.90
2019-01-24T09:28:31.662Z,27.37
2019-01-24T09:29:36.209Z,29.37
2019-01-24T09:30:41.122Z,26.23
2019-01-24T09:31:45.701Z,30.65
2019-01-24T09:32:50.292Z,28.57
2019-01-24T09:33:54.825Z,26.77
2019-01-24T09:34:59.325Z,26.17
2019-01-24T09:36:03.967Z,27.73
2019-01-24T09:37:08.526Z,27.70
2019-01-24T09:38:13.041Z,25.83
2019-01-24T09:39:17.537Z,30.97
2019-01-24T09:40:23.126Z,25.65
2019-01-24T09:41:27.681Z,25.10
2019-01-24T09:42:32.321Z,27.20
2019-01-24T09:43:36.943Z,27.25
2019-01-24T09:44:41.546Z,27.73
2019-01-24T09:45:46.082Z,31.30
2019-01-24T09:46:50.641Z,30.60
2019-01-24T09:47:56.721Z,29.55
2019-01-24T09:49:01.356Z,29.27
2019-01-24T09:50:09.021Z,28.43
2019-01-24T09:51:13.523Z,28.90
2019-01-24T09:52:18.054Z,27.33
2019-01-24T09:53:23.045Z,27.13
2019-01-24T09:54:27.537Z,30.47
2019-01-24T09:55:32.047Z,27.70
2019-01-24T09:56:36.663Z,28.20
2019-01-24T09:57:41.257Z,31.83
2019-01-24T09:58:45.819Z,28.90
2019-01-24T09:59:50.350Z,27.40
2019-01-24T10:00:55.011Z,28.05
2019-01-24T10:01:59.540Z,28.17
2019-01-24T10:03:04.490Z,28.35
2019-01-24T10:04:09.231Z,27.22
2019-01-24T10:05:14.008Z,24.87
2019-01-24T10:06:18.992Z,27.93
2019-01-24T10:07:23.494Z,29.87
2019-01-24T10:08:28.178Z,27.57
2019-01-24T10:09:32.702Z,27.43
2019-01-24T10:10:37.213Z,27.70
2019-01-24T10:11:41.871Z,27.27
2019-01-24T10:12:46.428Z,26.80
2019-01-24T10:13:51.002Z,29.75
2019-01-24T10:14:56.517Z,29.10
2019-01-24T10:16:01.196Z,29.10
2019-01-24T10:17:06.691Z,30.12
2019-01-24T10:18:11.258Z,26.57
2019-01-24T10:19:15.789Z,27.17
2019-01-24T10:20:25.160Z,29.40
2019-01-24T10:21:29.767Z,30.43
2019-01-24T10:22:34.499Z,27.02
2019-01-24T10:23:39.115Z,27.75
2019-01-24T10:24:43.709Z,27.32
2019-01-24T10:25:48.520Z,25.90
2019-01-24T10:26:53.070Z,28.20
2019-01-24T10:27:57.799Z,26.47
2019-01-24T10:29:02.345Z,26.27
2019-01-24T10:30:09.931Z,25.10
2019-01-24T10:31:14.450Z,27.87
2019-01-24T10:32:19.008Z,25.97
2019-01-24T10:33:23.570Z,26.80
2019-01-24T10:34:29.905Z,25.73
2019-01-24T10:35:34.499Z,27.63
2019-01-24T10:36:42.960Z,27.73
2019-01-24T10:37:45.315Z,25.37
2019-01-24T10:38:50.075Z,26.33
2019-01-24T10:39:54.623Z,29.30
2019-01-24T10:40:59.207Z,28.50
2019-01-24T10:42:03.836Z,27.65
2019-01-24T10:43:08.455Z,27.55
2019-01-24T10:44:13.035Z,26.30
2019-01-24T10:45:19.601Z,30.10
2019-01-24T10:46:24.134Z,27.87
2019-01-24T10:47:28.706Z,27.55
2019-01-24T10:48:33.346Z,29.92
2019-01-24T10:49:38.033Z,26.27
2019-01-24T10:50:42.606Z,26.87
2019-01-24T10:51:48.398Z,27.53
2019-01-24T10:52:53.004Z,27.62
2019-01-24T10:53:57.600Z,25.03
2019-01-24T10:55:03.690Z,25.97
2019-01-24T10:56:09.792Z,26.57
2019-01-24T10:57:14.297Z,26.03
2019-01-24T10:58:20.436Z,26.68
2019-01-24T10:59:25.065Z,28.02
2019-01-24T11:00:32.400Z,26.20
2019-01-24T11:01:36.956Z,27.02
2019-01-24T11:02:43.002Z,26.50
2019-01-24T11:03:47.606Z,25.82
2019-01-24T11:04:52.112Z,27.83
2019-01-24T11:05:56.763Z,24.53
2019-01-24T11:07:01.357Z,27.10
2019-01-24T11:08:06.383Z,25.40
2019-01-24T11:09:11.233Z,25.12
2019-01-24T11:10:18.569Z,25.88
2019-01-24T11:11:23.103Z,25.13
2019-01-24T11:12:27.679Z,24.07
2019-01-24T11:13:32.215Z,23.80
2019-01-24T11:14:36.700Z,25.10
2019-01-24T11:15:41.378Z,22.60
2019-01-24T11:16:45.942Z,21.93
2019-01-24T11:17:50.503Z,24.47
2019-01-24T11:18:55.217Z,23.57
2019-01-24T11:20:01.378Z,24.20
2019-01-24T11:21:06.195Z,24.63
2019-01-24T11:22:10.773Z,25.70
2019-01-24T11:23:15.367Z,23.57
2019-01-24T11:24:19.925Z,26.42
2019-01-24T11:25:26.359Z,24.20
2019-01-24T11:26:30.902Z,26.43
2019-01-24T11:27:35.483Z,24.97
2019-01-24T11:28:40.166Z,24.30
2019-01-24T11:29:44.699Z,23.35
2019-01-24T11:30:49.241Z,25.73
2019-01-24T11:31:53.855Z,26.20
2019-01-24T11:32:58.629Z,24.93
2019-01-24T11:34:03.258Z,24.70
2019-01-24T11:35:13.496Z,23.97
2019-01-24T11:36:18.089Z,24.37
2019-01-24T11:37:22.774Z,24.45
2019-01-24T11:38:27.309Z,27.42
2019-01-24T11:39:31.913Z,27.45
2019-01-24T11:40:36.682Z,26.62
2019-01-24T11:41:41.229Z,25.43
2019-01-24T11:42:46.363Z,24.77
2019-01-24T11:43:50.928Z,25.20
2019-01-24T11:44:55.499Z,24.43
2019-01-24T11:46:00.070Z,23.57
2019-01-24T11:47:04.740Z,26.93
2019-01-24T11:48:09.529Z,27.93
2019-01-24T11:49:14.065Z,24.53
2019-01-24T11:50:19.261Z,28.55
2019-01-24T11:51:24.178Z,26.57
2019-01-24T11:52:29.207Z,22.87
2019-01-24T11:53:33.743Z,23.33
2019-01-24T11:54:38.264Z,25.73
2019-01-24T11:55:42.922Z,22.35
2019-01-24T11:56:47.663Z,25.00
2019-01-24T11:57:52.405Z,24.63
2019-01-24T11:58:56.983Z,22.25
2019-01-24T12:00:01.592Z,23.83
2019-01-24T12:01:06.135Z,22.00
2019-01-24T12:02:10.731Z,21.40
2019-01-24T12:03:15.386Z,25.15
2019-01-24T12:04:20.033Z,23.42
2019-01-24T12:05:24.654Z,24.67
2019-01-24T12:06:29.370Z,21.17
2019-01-24T12:07:33.982Z,25.12
2019-01-24T12:08:38.505Z,22.47
2019-01-24T12:09:43.036Z,22.48
2019-01-24T12:10:47.697Z,22.43
2019-01-24T12:11:52.196Z,22.13
2019-01-24T12:12:58.244Z,21.27
2019-01-24T12:14:02.831Z,21.85
2019-01-24T12:15:10.798Z,25.45
2019-01-24T12:16:15.356Z,21.67
2019-01-24T12:17:19.883Z,22.63
2019-01-24T12:18:24.430Z,22.13
2019-01-24T12:19:29.045Z,20.37
2019-01-24T12:20:34.204Z,21.93
2019-01-24T12:21:38.953Z,23.10
2019-01-24T12:22:43.914Z,20.65
2019-01-24T12:23:48.482Z,21.62
2019-01-24T12:24:53.002Z,23.50
2019-01-24T12:25:57.521Z,24.20
2019-01-24T12:27:02.044Z,22.50
2019-01-24T12:28:06.706Z,21.20
2019-01-24T12:29:11.271Z,19.43
2019-01-24T12:30:18.859Z,19.60
2019-01-24T12:31:23.389Z,20.93
2019-01-24T12:32:27.903Z,21.07
2019-01-24T12:33:32.494Z,20.33
2019-01-24T12:34:37.205Z,20.83
2019-01-24T12:35:41.834Z,21.03
2019-01-24T12:36:46.354Z,21.33
2019-01-24T12:37:50.857Z,21.63
2019-01-24T12:38:55.359Z,20.50
2019-01-24T12:39:59.870Z,19.70
2019-01-24T12:41:04.560Z,19.27
2019-01-24T12:42:09.091Z,21.23
2019-01-24T12:43:13.618Z,20.47
2019-01-24T12:44:18.130Z,21.07
2019-01-24T12:45:31.056Z,17.90
2019-01-24T12:46:35.585Z,20.40
2019-01-24T12:47:40.162Z,18.67
2019-01-24T12:48:44.783Z,20.07
2019-01-24T12:49:49.330Z,18.70
2019-01-24T12:50:53.834Z,17.80
2019-01-24T12:51:58.514Z,17.90
2019-01-24T12:53:03.017Z,18.17
2019-01-24T12:54:07.532Z,20.33
2019-01-24T12:55:13.062Z,18.07
2019-01-24T12:56:17.584Z,17.27
2019-01-24T12:57:22.112Z,19.13
2019-01-24T12:58:26.654Z,17.17
2019-01-24T12:59:31.151Z,18.10
2019-01-24T13:00:37.095Z,19.20
2019-01-24T13:01:41.592Z,18.47
2019-01-24T13:02:46.104Z,17.80
2019-01-24T13:03:50.619Z,16.67
2019-01-24T13:04:55.124Z,19.17
2019-01-24T13:06:01.253Z,18.03
2019-01-24T13:07:07.849Z,20.07
2019-01-24T13:08:12.532Z,19.53
2019-01-24T13:09:17.141Z,17.50
2019-01-24T13:10:23.520Z,17.53
2019-01-24T13:11:28.088Z,18.37
2019-01-24T13:12:32.588Z,20.60
2019-01-24T13:13:37.077Z,19.17
2019-01-24T13:14:41.650Z,18.73
2019-01-24T13:15:46.277Z,18.65
2019-01-24T13:16:50.830Z,19.92
2019-01-24T13:17:55.426Z,18.00
2019-01-24T13:18:59.947Z,21.87
2019-01-24T13:20:07.466Z,18.62
2019-01-24T13:21:12.135Z,20.83
2019-01-24T13:22:16.786Z,19.83
2019-01-24T13:23:21.379Z,19.03
2019-01-24T13:24:25.886Z,20.43
2019-01-24T13:25:32.333Z,19.90
2019-01-24T13:26:37.107Z,17.77
2019-01-24T13:27:41.651Z,18.93
2019-01-24T13:28:46.212Z,18.77
2019-01-24T13:29:50.701Z,19.33
2019-01-24T13:30:55.220Z,19.63
2019-01-24T13:31:59.782Z,18.48
2019-01-24T13:33:05.079Z,20.68
2019-01-24T13:34:09.608Z,19.70
2019-01-24T13:35:14.195Z,18.50
2019-01-24T13:36:18.804Z,18.92
2019-01-24T13:37:26.006Z,19.80
2019-01-24T13:38:29.598Z,20.80
2019-01-24T13:39:34.168Z,19.67
2019-01-24T13:40:38.774Z,20.00
2019-01-24T13:41:43.313Z,20.82
2019-01-24T13:42:47.959Z,19.98
2019-01-24T13:43:52.469Z,21.23
2019-01-24T13:44:57.061Z,19.00
2019-01-24T13:46:01.551Z,20.60
2019-01-24T13:47:06.132Z,20.77
2019-01-24T13:48:10.745Z,20.03
2019-01-24T13:49:15.282Z,21.48
2019-01-24T13:50:20.025Z,21.53
2019-01-24T13:51:24.531Z,23.60
2019-01-24T13:52:29.055Z,20.97
2019-01-24T13:53:33.603Z,21.53
2019-01-24T13:54:39.904Z,22.20
2019-01-24T13:55:44.617Z,19.57